Time;durP1;ratioP1;P1;durP2;ratioP2;P2;SDS_P1;SDS_P2;PMS_P1;PMS_P2;Temp;Humidity;BMP_temperature;BMP_pressure;BME280_temperature;BME280_humidity;BME280_pressure;Samples;Min_cycle;Max_cycle;Signal;HPM_P1;HPM_P2
2021/01/25 00:00:46;;;;;;;4.07;3.37;;;;;;;6.90;82.62;99069.92;1644479;84;21108;-86
2021/01/25 00:03:13;;;;;;;2.73;2.53;;;;;;;6.96;82.47;99067.00;1715866;82;21184;-87
2021/01/25 00:05:41;;;;;;;3.13;2.93;;;;;;;7.06;82.32;99061.34;1721663;82;21208;-87
2021/01/25 00:08:12;;;;;;;3.03;2.87;;;;;;;7.07;82.25;99057.17;1719519;82;21207;-86
2021/01/25 00:10:42;;;;;;;3.40;3.20;;;;;;;7.02;82.33;99055.61;1733517;83;21182;-85
2021/01/25 00:13:11;;;;;;;2.20;1.87;;;;;;;7.07;82.32;99064.31;1724721;82;21148;-88
2021/01/25 00:15:40;;;;;;;2.20;2.10;;;;;;;7.12;81.89;99068.00;1735271;78;21152;-88
2021/01/25 00:18:08;;;;;;;3.07;2.80;;;;;;;7.13;81.92;99072.27;1720321;80;21148;-86
2021/01/25 00:20:40;;;;;;;2.73;2.53;;;;;;;7.06;82.02;99068.77;1723376;80;21350;-85
2021/01/25 00:23:07;;;;;;;2.47;2.37;;;;;;;7.06;82.02;99067.45;1737923;81;21069;-85
2021/01/25 00:25:33;;;;;;;2.03;1.93;;;;;;;7.17;81.83;99065.56;1743404;81;21176;-84
2021/01/25 00:28:00;;;;;;;3.00;2.80;;;;;;;7.20;81.66;99063.85;1756839;81;21160;-83
2021/01/25 00:30:27;;;;;;;2.77;2.57;;;;;;;7.16;81.75;99067.11;1748910;81;21315;-86
2021/01/25 00:32:54;;;;;;;3.10;2.83;;;;;;;7.13;81.96;99070.95;1741939;81;22324;-87
2021/01/25 00:35:22;;;;;;;2.40;2.30;;;;;;;7.19;81.77;99071.48;1740251;80;21240;-86
2021/01/25 00:37:49;;;;;;;3.37;3.03;;;;;;;7.27;81.25;99068.35;1734835;82;21164;-86
2021/01/25 00:40:18;;;;;;;3.27;2.97;;;;;;;7.24;81.20;99071.42;1733802;81;21256;-90
2021/01/25 00:42:45;;;;;;;3.60;3.30;;;;;;;6.87;81.50;99028.44;1734049;81;21249;-87
2021/01/25 00:45:13;;;;;;;2.63;2.43;;;;;;;7.07;81.77;99066.96;1718136;82;21119;-89
2021/01/25 00:47:41;;;;;;;2.87;2.67;;;;;;;7.12;81.65;99061.87;1739931;77;21360;-86
2021/01/25 00:50:09;;;;;;;3.10;2.90;;;;;;;7.09;81.74;99059.62;1688793;83;21194;-88
2021/01/25 00:52:36;;;;;;;3.77;3.47;;;;;;;7.00;82.06;99053.66;1690125;85;21192;-89
2021/01/25 00:55:10;;;;;;;2.87;2.57;;;;;;;6.92;82.29;99052.00;1732375;80;21655;-90
2021/01/25 00:57:39;;;;;;;4.17;3.60;;;;;;;7.00;82.22;99052.34;1735875;82;21680;-86
2021/01/25 01:00:08;;;;;;;4.67;3.27;;;;;;;7.04;82.07;99045.63;1734835;81;22237;-87
2021/01/25 01:02:37;;;;;;;2.80;2.60;;;;;;;7.00;82.26;99029.30;1711625;81;21203;-85
2021/01/25 01:05:05;;;;;;;5.90;3.47;;;;;;;6.91;82.38;99022.57;1689283;83;21231;-88
2021/01/25 01:07:34;;;;;;;5.57;3.50;;;;;;;6.96;82.35;99034.70;1669559;83;21210;-89
2021/01/25 01:10:01;;;;;;;3.50;3.17;;;;;;;7.03;82.06;99032.09;1676633;83;21230;-89
2021/01/25 01:12:29;;;;;;;3.80;3.60;;;;;;;7.06;82.03;99031.67;1671744;85;21240;-88
2021/01/25 01:14:58;;;;;;;5.57;4.13;;;;;;;7.00;82.19;99035.93;1659986;85;21410;-90
2021/01/25 01:17:27;;;;;;;2.90;2.73;;;;;;;6.95;82.22;99030.91;1709186;83;21250;-88
2021/01/25 01:19:55;;;;;;;3.30;3.03;;;;;;;7.02;82.08;99030.44;1698337;83;21220;-85
2021/01/25 01:22:22;;;;;;;4.90;3.17;;;;;;;7.09;81.81;99031.30;1674412;81;21226;-87
2021/01/25 01:24:49;;;;;;;4.37;3.03;;;;;;;7.01;81.92;99031.47;1699276;81;21194;-86
2021/01/25 01:27:16;;;;;;;3.60;3.30;;;;;;;6.92;82.15;99031.33;1704166;83;21670;-89
2021/01/25 01:29:44;;;;;;;4.10;3.23;;;;;;;6.93;82.16;99031.62;1683979;81;21191;-86
2021/01/25 01:32:11;;;;;;;6.40;4.67;;;;;;;7.04;81.99;99029.73;1694160;79;21126;-84
2021/01/25 01:34:38;;;;;;;5.77;5.13;;;;;;;7.01;81.95;99026.17;1690986;80;21140;-83
2021/01/25 01:37:05;;;;;;;5.90;5.13;;;;;;;6.92;82.13;99020.73;1726138;79;21200;-85
2021/01/25 01:39:32;;;;;;;5.43;4.30;;;;;;;6.94;82.27;99024.00;1707222;78;21165;-88
2021/01/25 01:41:59;;;;;;;5.90;5.47;;;;;;;7.02;82.08;99021.17;1671992;80;21239;-90
2021/01/25 01:44:26;;;;;;;5.80;5.20;;;;;;;6.75;82.07;98987.14;1676210;81;21134;-88
2021/01/25 01:46:53;;;;;;;6.87;5.90;;;;;;;6.90;82.34;99029.38;1680205;80;21292;-85
2021/01/25 01:49:21;;;;;;;5.13;4.80;;;;;;;6.92;82.40;99027.35;1675333;82;21200;-87
2021/01/25 01:51:48;;;;;;;4.97;4.57;;;;;;;7.02;82.19;99033.90;1705047;83;21282;-85
2021/01/25 01:54:15;;;;;;;6.77;6.23;;;;;;;7.01;82.22;99030.15;1638033;85;21236;-89
2021/01/25 01:56:42;;;;;;;6.03;5.50;;;;;;;6.91;82.45;99033.65;1687736;83;21002;-87
2021/01/25 01:59:09;;;;;;;6.33;4.80;;;;;;;6.89;82.60;99026.41;1677976;84;21214;-83
2021/01/25 02:01:37;;;;;;;5.67;5.20;;;;;;;6.97;82.37;99020.97;1710639;83;21049;-90
2021/01/25 02:04:06;;;;;;;7.07;6.47;;;;;;;6.98;82.33;99028.69;1738815;82;21185;-86
2021/01/25 02:06:33;;;;;;;7.17;6.53;;;;;;;6.88;82.64;99023.47;1732009;81;21208;-86
2021/01/25 02:09:03;;;;;;;10.17;7.93;;;;;;;6.86;82.84;99025.50;1679471;84;21173;-88
2021/01/25 02:11:30;;;;;;;9.57;7.20;;;;;;;6.93;82.64;99025.00;1702587;84;21069;-88
2021/01/25 02:14:00;;;;;;;9.70;8.80;;;;;;;6.95;82.66;99030.91;1688972;84;21262;-86
2021/01/25 02:16:30;;;;;;;10.53;9.30;;;;;;;6.89;82.76;99034.36;1693209;83;21211;-86
2021/01/25 02:18:57;;;;;;;11.70;9.27;;;;;;;6.89;82.84;99028.54;1675897;84;21208;-86
2021/01/25 02:21:28;;;;;;;10.17;9.07;;;;;;;7.00;82.58;99034.61;1686372;83;21169;-86
2021/01/25 02:24:15;;;;;;;9.63;8.10;;;;;;;7.00;82.57;99037.77;1722434;82;21112;-86
2021/01/25 02:27:22;;;;;;;10.73;8.60;;;;;;;6.88;82.83;99036.20;1704025;83;21154;-85
2021/01/25 02:29:50;;;;;;;8.17;7.37;;;;;;;6.86;82.90;99042.71;1689998;83;21260;-85
2021/01/25 02:32:17;;;;;;;13.10;9.07;;;;;;;6.84;83.01;99040.25;1679434;85;21425;-86
2021/01/25 02:34:44;;;;;;;11.27;7.77;;;;;;;6.74;83.31;99039.77;1675423;81;21120;-85
2021/01/25 02:37:11;;;;;;;10.03;7.87;;;;;;;6.67;83.78;99037.10;1697540;83;21204;-85
2021/01/25 02:39:41;;;;;;;11.17;9.57;;;;;;;6.73;83.48;99040.29;1704098;83;21187;-85
2021/01/25 02:42:08;;;;;;;14.77;9.67;;;;;;;6.75;83.47;99044.88;1703934;84;21220;-83
2021/01/25 02:44:36;;;;;;;12.57;8.67;;;;;;;6.67;83.75;99047.70;1680814;83;21036;-84
2021/01/25 02:47:03;;;;;;;10.47;7.23;;;;;;;6.69;83.81;99052.29;1712575;80;21144;-87
2021/01/25 02:49:36;;;;;;;10.77;8.17;;;;;;;6.77;83.56;99052.64;1684854;84;21328;-87
2021/01/25 02:52:06;;;;;;;15.23;9.70;;;;;;;6.74;83.55;99052.53;1674103;83;21264;-86
2021/01/25 02:54:34;;;;;;;12.70;8.00;;;;;;;6.64;83.81;99050.72;1672396;84;21314;-85
2021/01/25 02:57:04;;;;;;;13.27;7.93;;;;;;;6.67;83.78;99047.70;1673063;80;21088;-86
2021/01/25 02:59:31;;;;;;;10.67;8.23;;;;;;;6.67;83.76;99050.34;1687483;84;21172;-88
2021/01/25 03:01:58;;;;;;;11.60;8.53;;;;;;;6.63;83.87;99051.23;1690932;81;21170;-87
2021/01/25 03:04:28;;;;;;;13.17;7.57;;;;;;;6.56;84.06;99057.50;1674537;84;21223;-88
2021/01/25 03:06:57;;;;;;;9.47;7.20;;;;;;;6.54;84.13;99053.72;1669597;83;21334;-85
2021/01/25 03:09:25;;;;;;;10.27;8.40;;;;;;;6.59;83.99;99053.12;1659872;84;21199;-82
2021/01/25 03:11:53;;;;;;;8.67;7.47;;;;;;;6.63;83.85;99052.56;1699614;84;21109;-85
2021/01/25 03:14:20;;;;;;;11.97;8.53;;;;;;;6.57;84.08;99055.15;1679421;83;21807;-84
2021/01/25 03:16:48;;;;;;;13.50;8.77;;;;;;;6.49;84.25;99052.15;1685399;83;21224;-85
2021/01/25 03:19:15;;;;;;;13.23;9.33;;;;;;;6.57;84.05;99057.80;1708006;83;21165;-84
2021/01/25 03:21:47;;;;;;;11.60;9.80;;;;;;;6.61;83.83;99055.06;1696355;84;21192;-83
2021/01/25 03:24:16;;;;;;;11.77;9.57;;;;;;;6.59;83.78;99054.45;1689291;83;21114;-84
2021/01/25 03:26:43;;;;;;;11.57;9.00;;;;;;;6.51;84.03;99047.98;1698848;83;21188;-83
2021/01/25 03:29:11;;;;;;;11.03;9.73;;;;;;;6.51;84.02;99042.70;1705392;84;21359;-86
2021/01/25 03:31:38;;;;;;;11.10;9.90;;;;;;;6.36;83.71;99002.58;1698580;84;21214;-87
2021/01/25 03:34:06;;;;;;;12.03;10.47;;;;;;;6.63;83.71;99039.84;1684136;81;21529;-87
2021/01/25 03:36:35;;;;;;;10.63;9.17;;;;;;;6.59;83.83;99046.50;1686914;83;21309;-86
2021/01/25 03:39:07;;;;;;;10.03;8.60;;;;;;;6.54;83.84;99044.97;1681746;85;21227;-88
2021/01/25 03:41:34;;;;;;;8.87;7.37;;;;;;;6.57;83.44;99040.59;1694061;83;21288;-87
2021/01/25 03:44:01;;;;;;;11.53;9.03;;;;;;;6.62;83.28;99028.92;1689013;84;21211;-86
2021/01/25 03:46:27;;;;;;;12.67;10.30;;;;;;;6.64;83.25;99041.45;1699655;84;21692;-85
2021/01/25 03:48:56;;;;;;;10.70;8.27;;;;;;;6.59;83.49;99028.81;1725540;80;21140;-86
2021/01/25 03:51:24;;;;;;;10.43;8.27;;;;;;;6.58;83.48;99025.03;1735286;78;21145;-87
2021/01/25 03:53:51;;;;;;;7.73;6.97;;;;;;;6.65;83.03;99010.48;1735256;79;21140;-85
2021/01/25 03:56:18;;;;;;;10.60;8.17;;;;;;;6.67;82.54;99013.27;1726749;81;21111;-90
2021/01/25 03:58:45;;;;;;;10.00;7.90;;;;;;;6.58;82.55;99013.92;1713895;81;21212;-85
2021/01/25 04:01:15;;;;;;;9.73;8.53;;;;;;;6.49;82.85;99003.69;1733898;81;21228;-84
2021/01/25 04:03:42;;;;;;;10.83;8.37;;;;;;;6.55;82.78;99014.81;1737599;81;21235;-83
2021/01/25 04:06:09;;;;;;;12.97;9.63;;;;;;;6.58;82.75;99011.80;1733256;81;21201;-86
2021/01/25 04:08:38;;;;;;;16.67;10.67;;;;;;;6.50;82.85;99010.61;1681400;83;21654;-85
2021/01/25 04:11:05;;;;;;;16.93;10.97;;;;;;;6.48;82.95;99004.69;1713657;81;21362;-85
2021/01/25 04:13:32;;;;;;;14.97;12.13;;;;;;;6.50;82.77;99013.25;1710790;83;21169;-88
2021/01/25 04:16:01;;;;;;;15.60;12.13;;;;;;;6.42;83.21;99007.61;1734301;83;21128;-85
2021/01/25 04:18:28;;;;;;;17.63;12.47;;;;;;;6.37;83.24;99016.66;1733394;82;21249;-87
2021/01/25 04:20:57;;;;;;;14.10;11.03;;;;;;;6.39;83.32;99016.77;1723945;83;21622;-85
2021/01/25 04:23:24;;;;;;;14.53;10.93;;;;;;;6.48;83.12;99017.92;1734501;82;21080;-85
2021/01/25 04:25:51;;;;;;;21.20;14.10;;;;;;;6.45;83.13;99012.52;1736935;82;21188;-85
2021/01/25 04:28:18;;;;;;;17.03;12.67;;;;;;;6.40;83.36;99013.12;1734324;81;21160;-85
2021/01/25 04:30:46;;;;;;;19.13;12.30;;;;;;;6.42;83.41;99005.80;1731156;82;21352;-86
2021/01/25 04:33:15;;;;;;;17.77;11.83;;;;;;;6.47;83.33;99014.98;1735265;81;21196;-86
2021/01/25 04:35:42;;;;;;;20.37;14.37;;;;;;;6.45;83.44;99013.84;1729136;81;21168;-85
2021/01/25 04:38:09;;;;;;;23.30;16.23;;;;;;;6.44;83.40;99005.58;1727995;81;21229;-86
2021/01/25 04:40:36;;;;;;;22.33;13.80;;;;;;;6.38;83.69;99005.84;1748761;81;21327;-87
2021/01/25 04:43:03;;;;;;;22.70;14.60;;;;;;;6.39;83.82;99019.41;1679513;84;21731;-85
2021/01/25 04:45:31;;;;;;;18.10;14.77;;;;;;;6.43;83.61;99014.03;1707732;83;21231;-86
2021/01/25 04:48:00;;;;;;;19.53;13.67;;;;;;;6.42;83.54;99011.09;1700906;83;21310;-86
2021/01/25 04:50:32;;;;;;;16.83;11.97;;;;;;;6.45;83.46;99011.20;1684814;83;21330;-85
2021/01/25 04:52:59;;;;;;;13.77;12.17;;;;;;;6.36;83.77;99007.88;1684557;83;21208;-86
2021/01/25 04:55:31;;;;;;;16.17;10.87;;;;;;;6.31;83.70;98998.39;1696296;82;21129;-86
2021/01/25 04:58:01;;;;;;;10.53;9.40;;;;;;;6.37;83.34;99008.72;1691821;82;21206;-86
2021/01/25 05:00:29;;;;;;;13.40;11.13;;;;;;;6.45;83.14;98995.83;1708650;82;21108;-86
2021/01/25 05:02:56;;;;;;;12.83;8.60;;;;;;;6.43;82.85;98998.16;1726816;81;21195;-87
2021/01/25 05:05:24;;;;;;;10.63;9.53;;;;;;;6.39;82.84;99002.20;1653626;85;21212;-89
2021/01/25 05:07:51;;;;;;;16.37;11.87;;;;;;;6.43;82.67;98999.98;1723626;81;21477;-89
2021/01/25 05:10:17;;;;;;;17.50;14.43;;;;;;;6.48;82.02;99004.69;1705235;81;21192;-87
2021/01/25 05:12:50;;;;;;;18.77;15.70;;;;;;;6.43;81.86;99000.80;1694900;81;21320;-88
2021/01/25 05:15:30;;;;;;;18.77;16.40;;;;;;;6.38;81.73;99004.52;1690248;83;21789;-88
2021/01/25 05:18:11;;;;;;;22.23;18.93;;;;;;;6.50;81.34;99006.63;1693209;83;22308;-85
2021/01/25 05:20:39;;;;;;;20.70;17.17;;;;;;;6.49;81.31;99005.02;1700779;82;22242;-88
2021/01/25 05:23:13;;;;;;;19.00;15.47;;;;;;;6.37;81.37;99004.23;1685246;82;21207;-87
2021/01/25 05:25:40;;;;;;;19.50;16.63;;;;;;;6.48;81.08;99001.56;1720148;81;21186;-91
2021/01/25 05:28:19;;;;;;;15.13;13.33;;;;;;;6.53;80.78;99008.39;1723597;83;21187;-91
2021/01/25 05:30:48;;;;;;;17.60;14.50;;;;;;;6.50;80.75;99005.31;1724087;83;21635;-90
2021/01/25 05:33:27;;;;;;;14.87;13.27;;;;;;;6.43;80.54;99011.39;1717877;81;21203;-89
2021/01/25 05:35:55;;;;;;;17.60;14.97;;;;;;;6.47;79.94;99012.33;1728917;81;21195;-89
2021/01/25 05:38:22;;;;;;;18.40;15.67;;;;;;;6.26;79.96;98979.63;1733068;81;22367;-89
2021/01/25 05:40:59;;;;;;;18.83;16.50;;;;;;;6.42;80.17;99012.90;1695885;81;21343;-89
2021/01/25 05:43:32;;;;;;;17.77;15.37;;;;;;;6.46;80.01;99017.30;1724236;81;21654;-87
2021/01/25 05:46:10;;;;;;;18.83;16.27;;;;;;;6.58;79.77;99030.33;1712663;80;21129;-89
2021/01/25 05:48:41;;;;;;;18.40;15.07;;;;;;;6.52;79.47;99029.27;1723192;81;21190;-87
2021/01/25 05:51:20;;;;;;;17.60;13.37;;;;;;;6.45;79.50;99030.24;1712910;81;21589;-89
2021/01/25 05:53:48;;;;;;;14.90;12.10;;;;;;;6.43;79.45;99029.91;1690815;82;21178;-90
2021/01/25 05:56:17;;;;;;;13.27;11.03;;;;;;;6.33;79.25;99000.83;1729432;82;21053;-88
2021/01/25 05:58:44;;;;;;;13.70;11.67;;;;;;;6.45;79.44;99030.24;1706093;81;21351;-91
2021/01/25 06:01:12;;;;;;;11.83;10.63;;;;;;;6.42;79.64;99028.30;1696814;81;22157;-91
2021/01/25 06:03:40;;;;;;;11.60;9.93;;;;;;;6.40;79.60;99023.70;1705186;83;21687;-90
2021/01/25 06:06:10;;;;;;;11.80;10.37;;;;;;;6.51;79.36;99038.72;1678168;84;21737;-91
2021/01/25 06:08:51;;;;;;;10.53;9.03;;;;;;;6.50;79.25;99035.75;1690312;83;21164;-92
2021/01/25 06:11:22;;;;;;;10.87;8.63;;;;;;;6.34;79.49;99035.04;1708662;82;21133;-90
2021/01/25 06:14:13;;;;;;;9.00;6.60;;;;;;;6.26;79.84;99048.43;1698680;82;21328;-91
2021/01/25 06:16:45;;;;;;;10.87;9.47;;;;;;;6.34;79.49;99035.04;1703701;83;21193;-90
2021/01/25 06:19:15;;;;;;;9.60;8.70;;;;;;;6.24;79.48;99043.83;1679731;84;21158;-91
2021/01/25 06:21:53;;;;;;;13.40;9.87;;;;;;;6.19;79.79;99025.06;1701120;84;21157;-92
2021/01/25 06:24:22;;;;;;;8.87;7.97;;;;;;;6.17;79.80;99013.85;1719819;82;21626;-91
2021/01/25 06:27:02;;;;;;;9.78;8.83;;;;;;;6.27;79.51;99010.35;1701826;83;21272;-93
2021/01/25 06:29:47;;;;;;;8.13;7.30;;;;;;;6.27;79.45;99014.84;1703623;83;21202;-93
2021/01/25 06:32:21;;;;;;;9.33;7.37;;;;;;;6.15;79.49;99013.23;1681930;82;21193;-88
2021/01/25 06:34:53;;;;;;;9.17;8.20;;;;;;;6.21;79.39;99004.52;1676875;83;21100;-92
2021/01/25 06:37:28;;;;;;;9.37;8.43;;;;;;;6.22;79.23;99004.84;1701055;83;21198;-93
2021/01/25 06:40:15;;;;;;;12.03;9.00;;;;;;;6.13;79.43;99003.34;1700396;83;21152;-96
2021/01/25 06:42:48;;;;;;;9.30;8.40;;;;;;;6.16;79.40;99003.78;1658225;82;21169;-94
2021/01/25 06:45:34;;;;;;;12.87;10.93;;;;;;;6.25;79.08;98999.14;1655540;81;21178;-90
2021/01/25 06:48:29;;;;;;;;;;;;;;;6.13;79.37;99000.19;1641849;82;21313;-91
2021/01/25 06:51:46;;;;;;;10.83;9.73;;;;;;;6.13;79.44;99008.13;1681520;80;20170;-90
2021/01/25 06:54:13;;;;;;;11.37;8.97;;;;;;;6.14;79.22;99020.36;1625481;83;21148;-92
2021/01/25 06:56:59;;;;;;;9.27;7.77;;;;;;;6.09;79.41;99028.05;1670010;79;21131;-90
2021/01/25 06:59:33;;;;;;;8.43;7.53;;;;;;;6.03;79.59;99036.75;1638711;84;21151;-90
2021/01/25 07:02:28;;;;;;;6.97;6.27;;;;;;;6.10;79.10;99031.50;1669966;85;21221;-93
2021/01/25 07:04:58;;;;;;;7.90;7.20;;;;;;;6.13;78.99;99031.13;1675658;83;21169;-92
2021/01/25 07:07:34;;;;;;;8.00;6.90;;;;;;;6.07;79.08;99020.00;1700655;82;21360;-93
2021/01/25 07:10:33;;;;;;;8.77;7.43;;;;;;;6.08;79.02;99012.36;1712376;82;21185;-94
2021/01/25 07:13:15;;;;;;;9.33;7.57;;;;;;;6.12;78.53;99020.22;1674352;82;21180;-92
2021/01/25 07:16:27;;;;;;;9.73;8.73;;;;;;;6.07;78.49;99030.58;1663834;85;21183;-95
2021/01/25 07:19:26;;;;;;;7.83;7.07;;;;;;;6.09;78.50;99025.91;1668031;83;21302;-94
2021/01/25 07:22:23;;;;;;;9.47;8.37;;;;;;;6.18;78.27;99017.64;1683589;82;21264;-96
2021/01/25 07:25:33;;;;;;;8.80;7.90;;;;;;;6.13;77.68;99032.45;1725246;80;21153;-90
2021/01/25 07:28:17;;;;;;;8.40;7.47;;;;;;;6.10;78.14;99019.59;1744196;80;21166;-91
2021/01/25 07:30:51;;;;;;;9.60;8.70;;;;;;;6.21;77.73;99023.84;1747007;82;21256;-93
2021/01/25 07:34:01;;;;;;;10.40;9.23;;;;;;;6.19;77.37;99031.67;1717745;80;21022;-94
2021/01/25 07:36:41;;;;;;;9.50;8.37;;;;;;;6.06;77.58;99025.77;1664148;82;21090;-89
2021/01/25 07:39:51;;;;;;;9.97;9.03;;;;;;;6.15;77.38;99012.72;1641640;83;21267;-89
2021/01/25 07:42:39;;;;;;;13.97;10.77;;;;;;;6.17;77.25;99001.95;1658106;85;21196;-93
2021/01/25 07:45:11;;;;;;;14.70;11.83;;;;;;;6.10;77.28;98987.84;1663265;82;21235;-90
2021/01/25 07:47:38;;;;;;;11.43;10.23;;;;;;;6.13;77.25;98992.25;1741346;81;21245;-90
2021/01/25 07:50:09;;;;;;;11.20;10.10;;;;;;;6.23;76.85;98999.36;1708432;82;21170;-93
2021/01/25 07:52:36;;;;;;;11.10;9.80;;;;;;;6.22;76.74;98995.06;1736291;81;21757;-91
2021/01/25 07:55:14;;;;;;;9.53;8.57;;;;;;;6.17;76.97;98991.36;1744013;81;21157;-87
2021/01/25 07:57:44;;;;;;;12.37;11.07;;;;;;;6.25;76.87;98999.14;1722258;83;21247;-89
2021/01/25 08:00:19;;;;;;;12.93;11.43;;;;;;;6.33;76.73;98996.85;1725674;82;21199;-92
2021/01/25 08:02:57;;;;;;;11.63;9.77;;;;;;;6.24;76.76;98982.46;1742178;81;21292;-91
2021/01/25 08:05:32;;;;;;;9.93;8.93;;;;;;;6.15;76.87;98989.42;1751547;81;21125;-91
2021/01/25 08:08:12;;;;;;;12.60;10.93;;;;;;;6.24;76.72;98976.36;1771926;80;21181;-93
2021/01/25 08:10:45;;;;;;;10.17;9.17;;;;;;;6.27;76.59;98977.27;1759001;81;21193;-91
2021/01/25 08:13:26;;;;;;;8.20;7.20;;;;;;;6.22;76.51;98990.29;1763078;80;21145;-91
2021/01/25 08:16:10;;;;;;;8.30;7.37;;;;;;;6.12;76.52;99019.73;1762228;81;21172;-90
2021/01/25 08:18:44;;;;;;;10.57;9.47;;;;;;;6.12;76.30;99001.22;1755649;81;21133;-91
2021/01/25 08:21:16;;;;;;;12.53;11.17;;;;;;;6.12;76.38;98990.63;1733958;81;21130;-93
2021/01/25 08:23:48;;;;;;;10.27;9.13;;;;;;;6.07;76.70;99002.28;1755454;81;21129;-95
2021/01/25 08:26:24;;;;;;;11.17;10.07;;;;;;;6.18;76.49;98993.83;1736589;81;21305;-94
2021/01/25 08:29:02;;;;;;;10.23;8.23;;;;;;;6.15;76.57;98988.09;1755378;81;22070;-94
2021/01/25 08:31:42;;;;;;;11.28;9.30;;;;;;;6.08;76.90;98980.61;1775385;80;21106;-91
2021/01/25 08:34:29;;;;;;;12.63;11.43;;;;;;;6.17;76.87;98968.88;1733593;79;21082;-94
2021/01/25 08:37:21;;;;;;;11.80;10.53;;;;;;;6.24;76.79;98982.46;1747267;81;21134;-91
2021/01/25 08:39:51;;;;;;;11.90;9.83;;;;;;;5.51;76.93;98864.22;1749733;82;21296;-93
2021/01/25 08:42:25;;;;;;;12.27;11.03;;;;;;;6.20;76.85;98974.60;1758825;80;21158;-89
2021/01/25 08:45:08;;;;;;;13.57;11.27;;;;;;;6.25;76.47;98974.01;1735491;81;21031;-91
2021/01/25 08:47:40;;;;;;;12.70;11.20;;;;;;;6.30;76.42;98968.96;1740231;81;21175;-92
2021/01/25 08:50:25;;;;;;;12.17;11.03;;;;;;;6.19;76.75;98976.92;1737645;81;21168;-91
2021/01/25 08:53:09;;;;;;;12.83;9.73;;;;;;;6.20;76.74;98961.38;1764696;81;21145;-87
2021/01/25 08:55:44;;;;;;;12.77;11.50;;;;;;;6.28;76.30;98948.49;1770045;81;21015;-93
2021/01/25 08:58:26;;;;;;;12.80;10.97;;;;;;;6.34;76.28;98954.33;1750201;81;21169;-92
2021/01/25 09:00:54;;;;;;;15.07;11.70;;;;;;;6.27;76.57;98938.91;1762650;81;21561;-94
2021/01/25 09:03:23;;;;;;;15.10;11.83;;;;;;;6.24;76.89;98941.95;1721155;82;21173;-92
2021/01/25 09:05:56;;;;;;;13.53;12.00;;;;;;;6.33;76.79;98942.13;1683145;83;21180;-92
2021/01/25 09:08:32;;;;;;;18.13;12.50;;;;;;;6.30;76.78;98931.10;1700986;84;21376;-92
2021/01/25 09:11:04;;;;;;;14.63;11.60;;;;;;;6.20;77.23;98932.78;1703406;83;21177;-92
2021/01/25 09:13:35;;;;;;;13.67;12.13;;;;;;;6.29;77.26;98946.17;1709082;83;21716;-95
2021/01/25 09:16:05;;;;;;;15.63;12.47;;;;;;;6.39;76.87;98937.36;1751326;81;21157;-91
2021/01/25 09:18:32;;;;;;;14.73;11.13;;;;;;;6.36;76.88;98935.61;1758131;79;21612;-91
2021/01/25 09:21:09;;;;;;;13.72;11.40;;;;;;;6.29;77.14;98939.55;1764784;79;21165;-92
2021/01/25 09:24:01;;;;;;;14.60;11.67;;;;;;;6.36;77.13;98933.77;1758477;80;21106;-93
2021/01/25 09:26:49;;;;;;;17.17;12.97;;;;;;;6.46;76.87;98927.30;1763836;81;21174;-91
2021/01/25 09:29:38;;;;;;;16.50;13.33;;;;;;;6.46;77.04;98910.94;1755614;80;21149;-91
2021/01/25 09:32:27;;;;;;;21.80;14.97;;;;;;;6.45;77.12;98907.97;1733776;82;21182;-93
2021/01/25 09:34:57;;;;;;;20.40;15.60;;;;;;;6.50;77.13;98917.47;1751353;81;21168;-89
2021/01/25 09:37:31;;;;;;;18.13;14.00;;;;;;;6.58;76.94;98923.10;1722383;83;21169;-91
2021/01/25 09:40:05;;;;;;;17.00;15.03;;;;;;;6.52;77.14;98910.66;1759489;81;21170;-92
2021/01/25 09:42:42;;;;;;;17.63;13.43;;;;;;;6.39;77.54;98895.02;1752633;81;21150;-92
2021/01/25 09:45:16;;;;;;;16.82;13.18;;;;;;;6.48;77.56;98906.75;1754865;81;21192;-92
2021/01/25 09:47:53;;;;;;;22.67;14.20;;;;;;;6.50;77.37;98901.59;1774168;80;21289;-91
2021/01/25 09:50:31;;;;;;;17.00;13.67;;;;;;;6.35;77.91;98903.04;1755165;81;21117;-91
2021/01/25 09:53:08;;;;;;;19.73;12.93;;;;;;;6.40;77.93;98899.80;1769867;80;21118;-94
2021/01/25 09:55:40;;;;;;;16.57;13.70;;;;;;;6.41;77.80;98906.22;1741021;81;21059;-92
2021/01/25 09:58:12;;;;;;;16.80;14.33;;;;;;;6.41;77.87;98889.53;1776365;80;21153;-89
2021/01/25 10:00:55;;;;;;;16.43;11.87;;;;;;;6.33;78.19;98898.45;1764538;80;21086;-93
2021/01/25 10:05:34;;;;;;;15.27;12.83;;;;;;;6.47;77.55;98874.69;1799059;77;23145;-93
2021/01/25 10:08:01;;;;;;;20.33;14.60;;;;;;;6.42;77.71;98876.59;1775428;79;21177;-90
2021/01/25 10:10:28;;;;;;;16.73;12.90;;;;;;;6.41;77.88;98863.88;1789180;79;21177;-90
2021/01/25 10:13:00;;;;;;;18.90;12.50;;;;;;;6.46;77.75;98864.62;1740096;80;21182;-92
2021/01/25 10:15:27;;;;;;;17.67;12.40;;;;;;;6.55;77.15;98840.09;1747127;82;21350;-91
2021/01/25 10:18:11;;;;;;;17.20;13.57;;;;;;;6.52;77.31;98825.44;1717068;82;21722;-89
2021/01/25 10:20:42;;;;;;;15.20;13.33;;;;;;;6.54;77.39;98830.53;1712163;81;21200;-91
2021/01/25 10:23:10;;;;;;;27.17;15.03;;;;;;;6.66;77.14;98828.12;1739983;81;21125;-94
2021/01/25 10:25:39;;;;;;;23.27;16.53;;;;;;;6.72;77.02;98830.77;1738225;81;21175;-92
2021/01/25 10:28:10;;;;;;;26.00;17.00;;;;;;;6.66;77.19;98831.58;1746251;81;21179;-92
2021/01/25 10:30:41;;;;;;;30.20;17.83;;;;;;;6.63;77.32;98824.05;1732731;80;21167;-93
2021/01/25 10:33:53;;;;;;;25.37;14.03;;;;;;;6.73;77.13;98827.63;1697606;83;21120;-90
2021/01/25 10:37:00;;;;;;;34.65;17.90;;;;;;;6.80;76.64;98835.09;1728649;82;21687;-91
2021/01/25 10:39:30;;;;;;;27.13;17.53;;;;;;;5.49;76.87;98622.30;1696639;82;21496;-91
2021/01/25 10:42:03;;;;;;;24.70;13.60;;;;;;;6.61;77.23;98783.69;1736785;81;21216;-90
2021/01/25 10:44:33;;;;;;;23.07;16.10;;;;;;;6.67;77.19;98794.83;1685170;84;21480;-91
2021/01/25 10:47:06;;;;;;;28.57;16.30;;;;;;;6.72;77.07;98797.66;1723224;82;21338;-90
2021/01/25 10:49:56;;;;;;;26.20;16.63;;;;;;;6.71;77.08;98800.02;1689495;84;21746;-91
2021/01/25 10:53:04;;;;;;;40.47;17.93;;;;;;;6.63;77.36;98788.30;1679186;83;21323;-91
2021/01/25 10:55:34;;;;;;;38.00;18.00;;;;;;;6.59;77.65;98782.59;1730870;82;21020;-91
2021/01/25 10:58:13;;;;;;;31.13;15.80;;;;;;;6.70;77.46;98782.48;1721743;82;21612;-92
2021/01/25 11:00:50;;;;;;;25.70;16.27;;;;;;;6.67;77.48;98760.89;1722738;81;21157;-92
2021/01/25 11:03:34;;;;;;;21.27;13.50;;;;;;;6.61;77.77;98763.84;1687646;83;21176;-91
2021/01/25 11:06:33;;;;;;;32.50;14.47;;;;;;;6.62;77.75;98761.51;1697772;83;21126;-92
2021/01/25 11:09:42;;;;;;;32.80;14.83;;;;;;;6.65;77.76;98766.41;1702220;82;21180;-93
2021/01/25 11:12:18;;;;;;;30.20;15.87;;;;;;;6.53;78.11;98742.34;1717721;82;21101;-93
2021/01/25 11:15:00;;;;;;;31.53;16.07;;;;;;;6.55;78.19;98735.53;1695796;82;21146;-89
2021/01/25 11:17:34;;;;;;;31.33;18.23;;;;;;;6.66;77.98;98736.25;1713422;82;21225;-91
2021/01/25 11:20:32;;;;;;;31.03;17.97;;;;;;;6.54;78.36;98733.91;1719740;82;21177;-94
2021/01/25 11:23:26;;;;;;;24.30;15.63;;;;;;;6.53;78.46;98748.95;1690224;83;21144;-89
2021/01/25 11:25:55;;;;;;;32.20;18.53;;;;;;;6.64;78.20;98723.73;1724016;81;21622;-90
2021/01/25 11:28:25;;;;;;;32.90;20.23;;;;;;;6.62;78.33;98729.73;1724784;82;21568;-93
2021/01/25 11:31:24;;;;;;;36.60;19.63;;;;;;;6.58;78.54;98706.82;1727241;79;21114;-93
2021/01/25 11:33:58;;;;;;;25.53;16.87;;;;;;;6.63;78.50;98707.04;1730206;79;21101;-91
2021/01/25 11:36:28;;;;;;;30.83;20.20;;;;;;;6.67;78.41;98708.77;1719842;78;21184;-87
2021/01/25 11:39:15;;;;;;;27.97;20.13;;;;;;;6.69;78.37;98701.95;1714557;81;21328;-86
2021/01/25 11:41:44;;;;;;;25.93;18.83;;;;;;;6.66;78.50;98707.64;1728471;80;21224;-92
2021/01/25 11:44:11;;;;;;;24.00;15.80;;;;;;;6.67;78.68;98707.45;1723471;82;21307;-91
2021/01/25 11:46:40;;;;;;;24.53;14.90;;;;;;;6.67;78.75;98708.77;1695512;82;21218;-92
2021/01/25 11:49:14;;;;;;;29.60;18.97;;;;;;;6.68;78.71;98723.62;1705558;83;21295;-89
2021/01/25 11:52:07;;;;;;;28.80;18.43;;;;;;;6.64;78.91;98693.28;1680855;83;21113;-92
2021/01/25 11:55:16;;;;;;;25.32;13.83;;;;;;;6.57;79.25;98693.30;1687825;81;21219;-90
2021/01/25 11:57:50;;;;;;;26.57;15.00;;;;;;;6.71;78.88;98689.33;1658416;83;21328;-90
2021/01/25 12:00:23;;;;;;;;;;;;;;;6.67;78.97;98692.05;1658575;83;21131;-89
2021/01/25 12:02:49;;;;;;;29.20;14.93;;;;;;;6.59;79.18;98663.95;1665746;81;20214;-88
2021/01/25 12:05:30;;;;;;;26.47;15.23;;;;;;;6.56;79.45;98676.28;1666687;82;21154;-92